Time;durP1;ratioP1;P1;durP2;ratioP2;P2;SDS_P1;SDS_P2;PMS_P1;PMS_P2;Temp;Humidity;BMP_temperature;BMP_pressure;BME280_temperature;BME280_humidity;BME280_pressure;Samples;Min_cycle;Max_cycle;Signal;HPM_P1;HPM_P2
2021/06/02 00:01:36;;;;;;;6.15;3.85;;;;;;;14.42;55.29;99459.59;5031716;28;20046;-70
2021/06/02 00:04:02;;;;;;;7.18;3.95;;;;;;;14.38;56.13;99470.41;5035037;28;20033;-70
2021/06/02 00:06:30;;;;;;;6.00;3.22;;;;;;;14.34;54.92;99450.38;5033879;28;20034;-70
2021/06/02 00:08:56;;;;;;;6.72;4.00;;;;;;;14.35;55.62;99454.72;5036826;28;20083;-70
2021/06/02 00:11:22;;;;;;;7.95;4.30;;;;;;;14.29;55.48;99460.44;5035368;28;20128;-71
2021/06/02 00:13:48;;;;;;;4.55;3.92;;;;;;;14.25;56.16;99461.63;5031333;28;20064;-70
2021/06/02 00:16:14;;;;;;;4.43;3.50;;;;;;;14.17;56.64;99458.66;5030561;28;20112;-70
2021/06/02 00:18:40;;;;;;;6.15;4.10;;;;;;;14.10;56.42;99454.72;5031474;28;20493;-70
2021/06/02 00:21:06;;;;;;;6.47;3.88;;;;;;;14.07;56.08;99453.13;5029675;28;20473;-69
2021/06/02 00:23:32;;;;;;;4.63;3.67;;;;;;;14.08;55.84;99454.00;5030809;28;20089;-69
2021/06/02 00:26:00;;;;;;;9.98;4.15;;;;;;;14.01;56.60;99458.03;5030766;28;20030;-70
2021/06/02 00:28:27;;;;;;;4.65;3.80;;;;;;;13.96;56.64;99451.22;5030904;28;20377;-68
2021/06/02 00:30:53;;;;;;;4.38;3.90;;;;;;;13.95;57.02;99456.63;5031069;28;20112;-71
2021/06/02 00:33:19;;;;;;;7.22;4.13;;;;;;;13.92;56.82;99454.19;5030799;28;20466;-68
2021/06/02 00:35:45;;;;;;;8.40;3.60;;;;;;;13.78;57.70;99449.81;5030255;28;20060;-69
2021/06/02 00:38:12;;;;;;;5.05;3.67;;;;;;;13.76;57.60;99446.47;5030954;28;20513;-69
2021/06/02 00:40:47;;;;;;;4.15;3.70;;;;;;;13.75;58.27;99444.75;5031661;28;20501;-70
2021/06/02 00:43:15;;;;;;;3.63;3.20;;;;;;;13.73;57.10;99439.56;5030792;28;20041;-69
2021/06/02 00:45:45;;;;;;;4.10;3.70;;;;;;;13.71;57.26;99438.81;5030732;28;20278;-69
2021/06/02 00:48:15;;;;;;;4.85;3.72;;;;;;;13.72;57.31;99434.34;5030640;28;20037;-71
2021/06/02 00:50:45;;;;;;;6.35;3.80;;;;;;;13.75;57.10;99431.50;5030707;28;20039;-70
2021/06/02 00:53:11;;;;;;;7.18;3.88;;;;;;;13.77;57.58;99432.25;5030399;28;20033;-68
2021/06/02 00:55:36;;;;;;;5.25;3.58;;;;;;;13.78;57.85;99431.28;5030540;28;20464;-68
2021/06/02 00:58:02;;;;;;;4.38;3.42;;;;;;;13.78;56.88;99438.38;5030436;28;20030;-69
2021/06/02 01:00:29;;;;;;;5.32;3.35;;;;;;;13.77;56.54;99436.69;5006114;28;20053;-69
2021/06/02 01:02:57;;;;;;;7.82;4.30;;;;;;;13.74;56.60;99432.47;5007718;28;20496;-69
2021/06/02 01:05:24;;;;;;;5.50;3.45;;;;;;;13.74;57.46;99437.75;5029908;28;20088;-69
2021/06/02 01:07:52;;;;;;;5.53;3.80;;;;;;;13.70;57.70;99430.97;5029726;28;20396;-69
2021/06/02 01:10:20;;;;;;;6.10;3.80;;;;;;;13.67;56.95;99431.19;5005796;28;20033;-69
2021/06/02 01:12:49;;;;;;;6.63;4.43;;;;;;;13.59;57.24;99438.81;5029157;28;20405;-69
2021/06/02 01:15:17;;;;;;;6.15;4.63;;;;;;;13.50;58.06;99443.75;5029819;28;20041;-69
2021/06/02 01:17:42;;;;;;;7.00;4.10;;;;;;;13.47;58.07;99438.66;5029945;28;20121;-70
2021/06/02 01:20:08;;;;;;;5.90;4.05;;;;;;;13.44;57.98;99445.97;5029949;28;20041;-69
2021/06/02 01:22:36;;;;;;;5.25;3.55;;;;;;;13.39;59.68;99440.97;5029878;28;20037;-69
2021/06/02 01:25:13;;;;;;;6.95;4.18;;;;;;;13.31;59.58;99441.50;5029430;28;20082;-68
2021/06/02 01:27:39;;;;;;;7.53;4.22;;;;;;;13.24;59.41;99439.28;5029851;28;20059;-68
2021/06/02 01:30:08;;;;;;;6.85;4.20;;;;;;;13.19;59.82;99441.38;5029972;28;20477;-70
2021/06/02 01:32:55;;;;;;;7.43;3.97;;;;;;;13.15;58.99;99443.41;5029694;28;20120;-69
2021/06/02 01:35:57;;;;;;;7.60;4.78;;;;;;;13.11;58.69;99439.25;5027890;28;20090;-68
2021/06/02 01:38:41;;;;;;;6.68;4.30;;;;;;;13.14;59.08;99438.19;5029376;28;20047;-68
2021/06/02 01:41:20;;;;;;;5.50;4.55;;;;;;;13.14;58.70;99441.69;5029538;28;20501;-69
2021/06/02 01:44:07;;;;;;;8.13;4.50;;;;;;;13.13;59.24;99431.22;5030165;28;20389;-69
2021/06/02 01:47:03;;;;;;;6.40;4.55;;;;;;;13.11;58.84;99437.44;5029230;28;20045;-69
2021/06/02 01:50:13;;;;;;;6.40;3.72;;;;;;;13.05;59.14;99439.66;5029478;28;20221;-69
2021/06/02 01:52:51;;;;;;;5.95;4.00;;;;;;;13.01;59.16;99436.34;5026732;28;20049;-68
2021/06/02 01:55:54;;;;;;;8.73;4.55;;;;;;;12.92;59.77;99442.25;5029335;28;20132;-70
2021/06/02 01:58:25;;;;;;;6.75;4.07;;;;;;;12.83;59.92;99437.56;5026273;28;20064;-69
2021/06/02 02:01:28;;;;;;;5.53;4.57;;;;;;;12.76;60.47;99437.09;5029399;28;20557;-69
2021/06/02 02:04:14;;;;;;;6.90;4.40;;;;;;;12.70;60.38;99436.63;5029539;28;20079;-69
2021/06/02 02:06:45;;;;;;;5.05;4.38;;;;;;;12.64;60.23;99432.56;5029425;28;20049;-69
2021/06/02 02:09:29;;;;;;;7.93;4.68;;;;;;;12.62;61.33;99432.66;5029278;28;20072;-69
2021/06/02 02:12:23;;;;;;;5.60;4.20;;;;;;;12.62;61.13;99427.38;5029417;28;20060;-69
2021/06/02 02:15:16;;;;;;;8.48;4.28;;;;;;;12.61;61.25;99435.44;5020283;28;20435;-69
2021/06/02 02:18:14;;;;;;;7.30;4.57;;;;;;;12.55;60.88;99430.50;5029840;28;20540;-69
2021/06/02 02:21:01;;;;;;;5.50;4.38;;;;;;;12.48;61.92;99426.56;5030576;28;20106;-69
2021/06/02 02:23:27;;;;;;;7.68;4.25;;;;;;;12.43;61.34;99430.34;5030146;28;20030;-69
2021/06/02 02:25:58;;;;;;;5.15;4.05;;;;;;;12.43;61.91;99425.06;5033775;28;20044;-70
2021/06/02 02:28:23;;;;;;;8.45;5.47;;;;;;;12.44;61.85;99431.19;5041859;28;20038;-69
2021/06/02 02:31:15;;;;;;;5.88;4.70;;;;;;;12.44;61.43;99428.56;5039857;28;20045;-69
2021/06/02 02:33:49;;;;;;;4.78;4.38;;;;;;;12.41;61.17;99428.75;5033970;28;20067;-71
2021/06/02 02:36:22;;;;;;;5.63;4.72;;;;;;;12.43;61.04;99430.34;5032921;28;20358;-69
2021/06/02 02:39:29;;;;;;;6.05;4.47;;;;;;;12.43;61.25;99426.88;5033357;28;20037;-69
2021/06/02 02:42:19;;;;;;;5.60;4.50;;;;;;;12.36;61.56;99425.53;5024027;28;20381;-69
2021/06/02 02:45:27;;;;;;;6.78;4.72;;;;;;;12.30;61.71;99431.19;5033154;28;20034;-68
2021/06/02 02:48:20;;;;;;;6.28;4.18;;;;;;;12.23;62.20;99431.59;5028218;28;20029;-69
2021/06/02 02:51:03;;;;;;;13.25;4.47;;;;;;;12.20;62.30;99428.28;5032874;28;20038;-68
2021/06/02 02:53:44;;;;;;;5.57;4.70;;;;;;;12.18;62.53;99430.16;5032401;28;20041;-69
2021/06/02 02:56:20;;;;;;;7.35;4.90;;;;;;;12.15;62.57;99427.72;5032283;28;20045;-68
2021/06/02 02:59:26;;;;;;;6.30;4.50;;;;;;;12.13;62.55;99427.78;5032608;28;20397;-68
2021/06/02 03:02:07;;;;;;;5.30;4.00;;;;;;;12.14;62.76;99426.88;5032167;28;20681;-68
2021/06/02 03:04:39;;;;;;;9.68;4.60;;;;;;;12.14;61.92;99426.03;5032336;28;20056;-68
2021/06/02 03:07:06;;;;;;;5.25;4.70;;;;;;;12.16;62.10;99419.69;5031954;28;20568;-68
2021/06/02 03:09:41;;;;;;;8.90;4.78;;;;;;;12.16;61.56;99419.69;5031844;28;20088;-68
2021/06/02 03:12:23;;;;;;;6.35;5.13;;;;;;;12.16;61.60;99426.78;5032176;28;20404;-68
2021/06/02 03:15:10;;;;;;;11.20;4.70;;;;;;;12.15;62.06;99430.34;5033079;28;20041;-69
2021/06/02 03:17:44;;;;;;;5.15;4.22;;;;;;;12.11;61.56;99427.06;5032021;28;20025;-69
2021/06/02 03:20:14;;;;;;;6.10;3.83;;;;;;;12.15;61.39;99430.34;5032535;28;20071;-67
2021/06/02 03:22:52;;;;;;;5.85;4.07;;;;;;;12.15;61.07;99427.72;5032112;28;20060;-67
2021/06/02 03:25:30;;;;;;;5.72;4.60;;;;;;;12.13;61.49;99429.59;5031920;28;20033;-69
2021/06/02 03:28:22;;;;;;;9.77;4.78;;;;;;;12.12;61.37;99428.75;5031937;28;20041;-69
2021/06/02 03:31:00;;;;;;;7.82;4.35;;;;;;;12.11;62.07;99427.06;5032646;28;20041;-68
2021/06/02 03:33:50;;;;;;;9.93;5.28;;;;;;;12.07;62.18;99425.53;5032115;28;20037;-68
2021/06/02 03:36:36;;;;;;;7.75;4.75;;;;;;;12.09;61.88;99428.94;5030641;28;20124;-68
2021/06/02 03:39:27;;;;;;;7.50;5.10;;;;;;;12.10;62.23;99437.72;5031903;28;20050;-69
2021/06/02 03:42:12;;;;;;;7.18;4.80;;;;;;;12.11;62.21;99434.13;5031364;28;20507;-69
2021/06/02 03:44:55;;;;;;;6.35;4.45;;;;;;;12.12;61.27;99439.31;5031800;28;20120;-68
2021/06/02 03:47:42;;;;;;;7.22;4.28;;;;;;;12.12;60.39;99434.03;5029617;28;20094;-69
2021/06/02 03:50:18;;;;;;;6.22;4.38;;;;;;;12.13;60.14;99425.16;5031590;28;20041;-69
2021/06/02 03:53:09;;;;;;;7.28;5.00;;;;;;;12.11;60.86;99436.75;5031532;28;20037;-69
2021/06/02 03:55:54;;;;;;;6.60;4.57;;;;;;;12.09;60.92;99428.09;5031168;28;20509;-69
2021/06/02 03:58:36;;;;;;;5.75;4.70;;;;;;;12.06;61.62;99430.91;5031728;28;20037;-70
2021/06/02 04:01:19;;;;;;;9.00;4.40;;;;;;;12.01;61.82;99431.19;5031013;28;20463;-69
2021/06/02 04:03:57;;;;;;;7.28;4.50;;;;;;;11.98;62.18;99431.38;5031499;28;20041;-69
2021/06/02 04:06:32;;;;;;;5.82;4.35;;;;;;;11.95;62.53;99432.41;5029474;28;20464;-69
2021/06/02 04:09:02;;;;;;;6.10;3.90;;;;;;;11.99;62.01;99433.09;5031446;28;20037;-69
2021/06/02 04:11:27;;;;;;;5.05;3.83;;;;;;;11.99;61.94;99433.94;5029740;28;20033;-68
2021/06/02 04:13:54;;;;;;;7.72;3.85;;;;;;;12.01;62.40;99439.09;5029874;28;20084;-70
2021/06/02 04:16:31;;;;;;;6.63;4.72;;;;;;;12.03;62.96;99432.81;5031323;28;20033;-71
2021/06/02 04:19:02;;;;;;;6.88;4.95;;;;;;;12.02;62.87;99432.91;5031292;28;20037;-69
2021/06/02 04:21:28;;;;;;;5.18;4.15;;;;;;;12.05;63.07;99432.72;5031182;28;20060;-70
2021/06/02 04:23:55;;;;;;;8.60;4.10;;;;;;;12.10;62.46;99432.44;5031208;28;20064;-69
2021/06/02 04:26:21;;;;;;;8.57;4.45;;;;;;;12.15;62.10;99425.06;5031039;28;20030;-69
2021/06/02 04:28:48;;;;;;;9.48;4.85;;;;;;;12.19;62.71;99430.06;5031769;28;20072;-68
2021/06/02 04:31:15;;;;;;;7.18;4.22;;;;;;;12.29;62.43;99426.88;5030721;28;20585;-69
2021/06/02 04:33:43;;;;;;;6.00;3.95;;;;;;;12.34;62.76;99424.78;5029015;28;20087;-68
2021/06/02 04:36:12;;;;;;;6.20;3.92;;;;;;;12.39;62.72;99430.63;5030657;28;20037;-69
2021/06/02 04:38:37;;;;;;;8.77;5.88;;;;;;;12.45;62.80;99428.47;5031257;28;20083;-70
2021/06/02 04:41:05;;;;;;;6.90;5.07;;;;;;;12.54;61.92;99434.94;5030822;28;20033;-70
2021/06/02 04:43:33;;;;;;;7.47;4.32;;;;;;;12.64;62.06;99422.84;5031078;28;20037;-70
2021/06/02 04:46:01;;;;;;;6.45;4.07;;;;;;;12.73;61.83;99429.34;5029301;28;20140;-70
2021/06/02 04:48:28;;;;;;;9.57;5.57;;;;;;;12.83;61.60;99424.31;5029366;28;20036;-69
2021/06/02 04:51:09;;;;;;;6.47;4.13;;;;;;;12.95;61.38;99420.03;5030386;28;20080;-70
2021/06/02 04:53:34;;;;;;;7.75;4.57;;;;;;;13.07;61.21;99425.38;5028757;28;20044;-68
2021/06/02 04:56:28;;;;;;;8.77;5.07;;;;;;;13.19;61.08;99422.88;5029630;28;20041;-69
2021/06/02 04:59:27;;;;;;;12.02;5.20;;;;;;;13.39;60.33;99427.75;5030014;28;20542;-68
2021/06/02 05:02:30;;;;;;;12.23;3.88;;;;;;;13.70;60.07;99423.00;5030201;28;20029;-69
2021/06/02 05:05:32;;;;;;;8.68;3.85;;;;;;;14.13;58.39;99422.72;5028785;28;20040;-69
2021/06/02 05:08:19;;;;;;;8.57;4.25;;;;;;;14.56;57.57;99420.53;5030092;28;20033;-69
2021/06/02 05:11:10;;;;;;;10.20;4.80;;;;;;;15.09;55.51;99417.63;5029988;28;20048;-69
2021/06/02 05:14:06;;;;;;;13.95;4.75;;;;;;;15.49;55.07;99419.13;5029728;28;20029;-69
2021/06/02 05:17:08;;;;;;;9.13;5.13;;;;;;;15.87;54.35;99424.19;5029504;28;20385;-69
2021/06/02 05:20:03;;;;;;;8.52;4.90;;;;;;;16.19;53.41;99423.50;5030089;28;20516;-69
2021/06/02 05:23:02;;;;;;;6.38;4.32;;;;;;;16.65;52.26;99426.00;5027974;28;20037;-69
2021/06/02 05:25:46;;;;;;;10.38;4.75;;;;;;;17.08;51.61;99427.03;5029651;28;20504;-70
2021/06/02 05:28:56;;;;;;;15.00;4.53;;;;;;;17.55;51.00;99435.59;5029169;28;20133;-70
2021/06/02 05:32:21;;;;;;;11.57;5.03;;;;;;;17.88;49.86;99429.25;5029619;28;20061;-70
2021/06/02 05:35:20;;;;;;;14.65;4.38;;;;;;;18.28;49.91;99433.81;5016401;28;20040;-70
2021/06/02 05:38:10;;;;;;;12.80;5.60;;;;;;;18.84;48.31;99432.50;5029918;28;20041;-70
2021/06/02 05:41:16;;;;;;;18.25;5.65;;;;;;;19.28;47.70;99431.16;5029966;28;20136;-70
2021/06/02 05:44:25;;;;;;;7.47;4.78;;;;;;;19.96;45.60;99427.63;5020253;28;20054;-70
2021/06/02 05:47:27;;;;;;;5.53;3.65;;;;;;;20.37;40.66;99431.69;5003813;28;20092;-70
2021/06/02 05:50:30;;;;;;;3.95;3.15;;;;;;;20.74;40.33;99428.16;4990561;28;20121;-69
2021/06/02 05:53:05;;;;;;;7.75;3.45;;;;;;;20.69;43.04;99422.41;5029362;28;20026;-69
2021/06/02 05:55:58;;;;;;;10.60;4.72;;;;;;;20.71;42.84;99430.31;5029390;28;20373;-69
2021/06/02 05:59:06;;;;;;;4.63;3.20;;;;;;;21.05;42.82;99427.84;5028775;28;20033;-70
2021/06/02 06:01:59;;;;;;;19.63;4.30;;;;;;;21.37;41.50;99424.66;5029662;28;20033;-69
2021/06/02 06:04:30;;;;;;;13.27;4.53;;;;;;;21.51;40.19;99431.34;5029001;28;20033;-70
2021/06/02 06:07:46;;;;;;;10.27;4.05;;;;;;;21.44;38.31;99427.59;5028569;28;20038;-69
2021/06/02 06:10:45;;;;;;;21.40;6.60;;;;;;;21.50;39.16;99429.66;5019315;28;20037;-69
2021/06/02 06:13:10;;;;;;;9.77;4.93;;;;;;;21.62;37.96;99435.63;5028551;28;20273;-70
2021/06/02 06:16:13;;;;;;;27.47;7.27;;;;;;;21.72;38.12;99432.84;5028751;28;20033;-68
2021/06/02 06:18:51;;;;;;;19.60;6.03;;;;;;;21.76;37.78;99435.06;5028992;28;20275;-69
2021/06/02 06:21:35;;;;;;;18.85;5.85;;;;;;;21.83;38.03;99421.84;5029554;28;20490;-69
2021/06/02 06:24:08;;;;;;;18.58;6.65;;;;;;;21.99;37.93;99429.19;5029376;28;20425;-69
2021/06/02 06:26:59;;;;;;;19.80;6.82;;;;;;;22.02;38.28;99428.88;5029354;28;20347;-70
2021/06/02 06:29:37;;;;;;;16.95;6.00;;;;;;;22.24;37.89;99431.03;5028661;28;20037;-70
2021/06/02 06:32:05;;;;;;;11.00;5.00;;;;;;;22.26;38.13;99426.34;5029478;28;20052;-69
2021/06/02 06:34:33;;;;;;;11.88;5.07;;;;;;;22.37;38.09;99427.06;5029157;28;20034;-69
2021/06/02 06:37:00;;;;;;;15.13;5.70;;;;;;;22.58;38.01;99426.69;5028421;28;20033;-69
2021/06/02 06:39:35;;;;;;;22.88;6.00;;;;;;;22.80;37.65;99425.25;5027478;28;20025;-69
2021/06/02 06:42:01;;;;;;;21.80;6.63;;;;;;;22.91;37.66;99423.13;5009034;28;20038;-69
2021/06/02 06:44:29;;;;;;;34.88;10.05;;;;;;;23.00;37.69;99428.53;5009109;28;20072;-69
2021/06/02 06:46:56;;;;;;;24.20;7.10;;;;;;;23.20;37.37;99416.47;5009073;28;20153;-69
2021/06/02 06:49:23;;;;;;;32.45;7.63;;;;;;;23.54;36.41;99413.63;5009386;28;20452;-69
2021/06/02 06:51:53;;;;;;;12.45;6.05;;;;;;;23.85;35.65;99415.69;5009572;28;20339;-69
2021/06/02 06:54:21;;;;;;;14.07;4.80;;;;;;;24.12;35.14;99414.47;5009330;28;20030;-70
2021/06/02 06:56:47;;;;;;;21.02;4.78;;;;;;;24.29;34.57;99411.69;5008883;28;20034;-70
2021/06/02 06:59:18;;;;;;;7.10;4.25;;;;;;;24.50;33.56;99409.31;5008783;28;20095;-69
2021/06/02 07:01:44;;;;;;;10.05;4.40;;;;;;;24.69;33.41;99415.31;5008979;28;20026;-68
2021/06/02 07:04:11;;;;;;;28.20;6.22;;;;;;;24.92;33.42;99404.56;5009489;28;20026;-70
2021/06/02 07:06:37;;;;;;;46.05;7.60;;;;;;;25.01;33.38;99403.50;5019934;28;20053;-67
2021/06/02 07:09:05;;;;;;;156.45;24.63;;;;;;;25.23;32.55;99412.66;5027638;28;20029;-67
2021/06/02 07:11:37;;;;;;;48.00;8.73;;;;;;;25.55;31.72;99405.31;5011621;28;20052;-67
2021/06/02 07:14:03;;;;;;;98.05;16.42;;;;;;;26.10;31.61;99401.47;5031154;28;20048;-67
2021/06/02 07:16:30;;;;;;;17.85;5.65;;;;;;;26.51;30.44;99401.84;5030900;28;20036;-68
2021/06/02 07:18:58;;;;;;;9.85;3.30;;;;;;;26.70;27.84;99396.88;5020234;28;20081;-65
2021/06/02 07:21:24;;;;;;;5.90;2.88;;;;;;;27.11;27.63;99397.16;5025753;28;20097;-65
2021/06/02 07:23:50;;;;;;;92.90;15.38;;;;;;;27.69;27.78;99404.38;5013023;28;20125;-66
2021/06/02 07:26:15;;;;;;;35.22;6.65;;;;;;;28.09;26.75;99394.72;5012283;28;20037;-65
2021/06/02 07:28:41;;;;;;;8.40;3.63;;;;;;;28.69;26.65;99403.19;5029601;28;20065;-66
2021/06/02 07:31:08;;;;;;;14.07;4.28;;;;;;;29.20;25.24;99393.78;5032879;28;20453;-66
2021/06/02 07:33:35;;;;;;;7.50;3.03;;;;;;;29.78;22.76;99399.47;5018593;28;20434;-67
2021/06/02 07:36:01;;;;;;;12.60;2.85;;;;;;;30.19;21.77;99395.66;5011940;28;20371;-64
2021/06/02 07:38:27;;;;;;;5.50;2.58;;;;;;;30.31;20.40;99399.41;5024035;28;20033;-66
2021/06/02 07:40:58;;;;;;;3.60;2.85;;;;;;;30.46;18.83;99398.34;5030448;28;20045;-66
2021/06/02 07:43:23;;;;;;;2.70;2.20;;;;;;;30.55;18.18;99399.78;5014379;28;20037;-64
2021/06/02 07:45:49;;;;;;;3.13;2.17;;;;;;;30.49;18.46;99400.63;5008428;28;20099;-66
2021/06/02 07:48:14;;;;;;;3.25;2.30;;;;;;;30.68;18.83;99399.72;5025843;28;20122;-66
2021/06/02 07:50:40;;;;;;;4.15;1.92;;;;;;;30.47;17.91;99386.38;5026145;28;20091;-71
2021/06/02 07:53:06;;;;;;;7.43;2.15;;;;;;;30.28;18.81;99390.88;5025426;28;20386;-69
2021/06/02 07:55:32;;;;;;;4.63;2.40;;;;;;;30.62;19.17;99397.00;5011315;28;20548;-70
2021/06/02 07:57:57;;;;;;;3.78;2.50;;;;;;;30.86;18.26;99385.41;5012482;28;20048;-70
2021/06/02 08:00:23;;;;;;;3.28;2.30;;;;;;;30.66;17.83;99395.53;5022773;28;20075;-71
2021/06/02 08:02:48;;;;;;;4.13;2.13;;;;;;;30.27;18.81;99386.44;5026504;28;20139;-71
2021/06/02 08:05:15;;;;;;;4.53;2.53;;;;;;;30.43;18.08;99391.44;5026382;28;20446;-69
2021/06/02 08:07:45;;;;;;;5.72;2.63;;;;;;;30.60;17.89;99398.06;5025807;28;20041;-69
2021/06/02 08:10:13;;;;;;;4.15;2.58;;;;;;;30.91;17.59;99388.31;4997309;28;20040;-69
2021/06/02 08:12:38;;;;;;;6.00;3.42;;;;;;;31.31;17.21;99388.09;5023159;28;20038;-69
2021/06/02 08:15:06;;;;;;;5.45;3.08;;;;;;;31.19;16.74;99392.56;5025211;28;20119;-69
2021/06/02 08:17:31;;;;;;;2.72;2.00;;;;;;;31.20;17.00;99395.06;5025436;28;20042;-69
2021/06/02 08:19:57;;;;;;;5.18;2.45;;;;;;;31.00;16.79;99389.72;5004819;28;20538;-70
2021/06/02 08:22:22;;;;;;;3.33;2.42;;;;;;;31.01;17.47;99388.69;5004484;28;20057;-69
2021/06/02 08:24:48;;;;;;;4.03;2.55;;;;;;;30.64;17.43;99390.28;5005854;28;20486;-69
2021/06/02 08:27:14;;;;;;;7.32;2.08;;;;;;;30.06;16.98;99390.25;5005138;28;20108;-70
2021/06/02 08:29:40;;;;;;;3.85;2.42;;;;;;;29.77;16.80;99391.53;5025141;28;20030;-70
2021/06/02 08:32:07;;;;;;;7.22;2.50;;;;;;;29.71;17.31;99388.63;5025324;28;20220;-71
2021/06/02 08:34:32;;;;;;;7.18;2.83;;;;;;;29.42;17.75;99394.44;5024802;28;20048;-70
2021/06/02 08:36:57;;;;;;;3.10;2.63;;;;;;;29.46;18.30;99391.09;5025112;28;20037;-71
2021/06/02 08:39:23;;;;;;;3.63;2.35;;;;;;;29.63;17.73;99396.09;5025805;28;20632;-72
2021/06/02 08:41:50;;;;;;;6.03;2.30;;;;;;;29.42;17.71;99387.09;5018881;28;20045;-70
2021/06/02 08:44:19;;;;;;;7.95;2.00;;;;;;;29.27;17.16;99398.16;5005019;28;20040;-72
2021/06/02 08:46:46;;;;;;;2.83;2.47;;;;;;;29.53;17.06;99396.50;5024316;28;20504;-71
2021/06/02 08:49:13;;;;;;;3.17;2.08;;;;;;;29.75;17.16;99397.16;5020171;28;20041;-70
2021/06/02 08:51:39;;;;;;;4.30;2.50;;;;;;;30.26;16.41;99391.06;5005176;28;20029;-70
2021/06/02 08:54:05;;;;;;;3.42;2.22;;;;;;;30.32;16.60;99398.38;5005220;28;20401;-70
2021/06/02 08:56:33;;;;;;;2.95;2.28;;;;;;;30.57;16.07;99387.63;5005254;28;20139;-70
2021/06/02 08:58:58;;;;;;;2.88;2.10;;;;;;;30.53;15.66;99378.22;5003434;28;20037;-69
2021/06/02 09:01:25;;;;;;;5.65;2.25;;;;;;;30.36;16.35;99385.19;5022322;28;20417;-69
2021/06/02 09:03:50;;;;;;;3.58;2.38;;;;;;;30.54;16.58;99390.75;5025215;28;20120;-70
2021/06/02 09:06:16;;;;;;;4.28;2.47;;;;;;;31.36;15.38;99385.53;5024585;28;20561;-70
2021/06/02 09:08:44;;;;;;;2.90;2.25;;;;;;;31.36;15.23;99377.34;5023964;28;20045;-69
2021/06/02 09:11:20;;;;;;;3.15;2.22;;;;;;;31.74;15.46;99387.34;5011696;28;20033;-68
2021/06/02 09:13:47;;;;;;;2.53;2.00;;;;;;;32.52;14.69;99377.78;5019786;28;20030;-69
2021/06/02 09:16:20;;;;;;;3.03;2.38;;;;;;;33.10;14.16;99379.94;5024037;28;20519;-69
2021/06/02 09:18:58;;;;;;;5.30;2.27;;;;;;;33.05;14.21;99387.19;5024822;28;20040;-70
2021/06/02 09:21:27;;;;;;;6.25;2.70;;;;;;;32.20;14.73;99386.09;5023938;28;20056;-70
2021/06/02 09:23:53;;;;;;;3.70;2.45;;;;;;;31.68;15.31;99385.53;5022462;28;20504;-71
2021/06/02 09:26:22;;;;;;;2.83;2.33;;;;;;;32.07;15.08;99392.53;5018389;28;20461;-70
2021/06/02 09:28:48;;;;;;;17.20;4.60;;;;;;;33.17;15.25;99379.84;5022260;28;20033;-70
2021/06/02 09:31:25;;;;;;;3.43;2.80;;;;;;;34.20;14.00;99381.31;5023710;28;20041;-70
2021/06/02 09:33:51;;;;;;;3.88;2.88;;;;;;;34.34;13.98;99376.41;5023526;28;20037;-71
2021/06/02 09:36:17;;;;;;;4.15;2.38;;;;;;;34.58;14.26;99374.47;5023512;28;20448;-71
2021/06/02 09:38:51;;;;;;;5.32;2.70;;;;;;;34.92;13.76;99380.06;5024234;28;20033;-70
2021/06/02 09:41:17;;;;;;;5.55;2.63;;;;;;;35.35;13.47;99375.13;5024356;28;20072;-71
2021/06/02 09:43:42;;;;;;;4.20;2.97;;;;;;;35.29;13.53;99367.88;5024223;28;20049;-70
2021/06/02 09:46:10;;;;;;;6.57;3.53;;;;;;;35.61;13.30;99366.25;5021339;28;20409;-71
2021/06/02 09:49:00;;;;;;;5.50;2.83;;;;;;;35.45;13.35;99364.31;5021329;28;20489;-71
2021/06/02 09:51:39;;;;;;;3.90;2.50;;;;;;;35.44;13.46;99368.13;5007364;28;20045;-70
2021/06/02 09:54:07;;;;;;;2.92;2.63;;;;;;;35.71;12.70;99367.50;5023249;28;20040;-69
2021/06/02 09:56:43;;;;;;;9.73;2.80;;;;;;;34.99;13.39;99368.97;5023225;28;20033;-70
2021/06/02 09:59:11;;;;;;;5.05;2.85;;;;;;;34.93;14.05;99372.69;5008781;28;20041;-70
2021/06/02 10:01:53;;;;;;;10.82;3.65;;;;;;;35.42;13.39;99373.03;5023798;28;20041;-71
2021/06/02 10:04:26;;;;;;;3.35;2.90;;;;;;;35.63;12.62;99366.81;5023818;28;20628;-70
2021/06/02 10:06:51;;;;;;;4.87;2.97;;;;;;;36.03;12.49;99364.94;5014194;28;20045;-70
2021/06/02 10:09:22;;;;;;;5.32;2.70;;;;;;;35.99;12.25;99359.16;5022533;28;20843;-70
2021/06/02 10:12:07;;;;;;;3.67;2.50;;;;;;;36.48;12.68;99356.53;5022213;28;20048;-70
2021/06/02 10:14:32;;;;;;;3.38;2.38;;;;;;;36.33;12.79;99359.09;5025509;28;20033;-71
2021/06/02 10:16:58;;;;;;;17.10;4.30;;;;;;;35.99;12.99;99355.56;5023661;28;20597;-71
2021/06/02 10:19:41;;;;;;;4.45;2.33;;;;;;;35.95;12.94;99348.94;5026210;28;20038;-70
2021/06/02 10:22:29;;;;;;;10.20;2.90;;;;;;;35.56;13.17;99359.81;5024886;28;20038;-71
2021/06/02 10:24:58;;;;;;;5.03;2.20;;;;;;;36.09;13.41;99353.00;5027036;28;20132;-71
2021/06/02 10:27:24;;;;;;;6.80;3.25;;;;;;;36.37;12.75;99351.16;5031094;28;20121;-70
2021/06/02 10:29:50;;;;;;;5.10;2.47;;;;;;;36.32;12.22;99349.19;5026208;28;20486;-70
2021/06/02 10:32:18;;;;;;;2.95;2.40;;;;;;;36.36;12.60;99352.25;5016949;28;20540;-70
2021/06/02 10:34:44;;;;;;;5.43;2.58;;;;;;;36.10;12.62;99358.22;5027795;28;20097;-69
2021/06/02 10:37:14;;;;;;;3.00;2.20;;;;;;;35.95;12.75;99355.22;5025821;28;20108;-70
2021/06/02 10:39:44;;;;;;;4.07;2.60;;;;;;;36.13;12.55;99350.56;5025217;28;20053;-70
2021/06/02 10:42:19;;;;;;;3.60;3.00;;;;;;;35.84;12.64;99347.97;5023296;28;20042;-72
2021/06/02 10:44:51;;;;;;;2.30;2.10;;;;;;;35.82;13.02;99350.13;5015777;28;20029;-71
2021/06/02 10:47:22;;;;;;;2.60;1.98;;;;;;;35.32;12.60;99346.28;5029336;28;20119;-70
2021/06/02 10:49:48;;;;;;;3.15;2.55;;;;;;;35.15;13.08;99349.03;5009953;28;20034;-70
2021/06/02 10:52:34;;;;;;;8.00;2.55;;;;;;;35.47;12.73;99348.47;5023070;28;20553;-71
2021/06/02 10:54:59;;;;;;;3.40;2.30;;;;;;;35.31;12.77;99354.75;5028598;28;20034;-70
2021/06/02 10:57:25;;;;;;;3.42;2.50;;;;;;;34.14;14.32;99351.31;5028085;28;20383;-71
2021/06/02 10:59:52;;;;;;;6.05;1.85;;;;;;;33.24;14.60;99357.91;5025339;28;20030;-70
2021/06/02 11:02:28;;;;;;;3.38;2.22;;;;;;;32.78;15.21;99345.72;5026980;28;20511;-71
2021/06/02 11:04:56;;;;;;;12.15;2.25;;;;;;;32.49;15.40;99345.50;5027354;28;20077;-73
2021/06/02 11:07:26;;;;;;;8.95;2.63;;;;;;;32.08;15.52;99336.09;5027204;28;20990;-70
2021/06/02 11:10:01;;;;;;;9.90;2.90;;;;;;;31.75;16.38;99330.94;5019010;28;20042;-71
2021/06/02 11:12:27;;;;;;;;;;;;;;;31.58;16.41;99333.38;5024056;28;20033;-70
2021/06/02 11:14:53;;;;;;;3.78;2.00;;;;;;;31.32;16.77;99326.25;5026695;28;19917;-70
2021/06/02 11:17:20;;;;;;;5.13;2.78;;;;;;;30.86;16.98;99336.41;5026113;28;20744;-70
2021/06/02 11:19:45;;;;;;;2.47;1.85;;;;;;;30.65;17.14;99329.41;5026539;28;20219;-71
2021/06/02 11:22:17;;;;;;;3.80;2.03;;;;;;;30.60;17.34;99324.59;5026606;28;20120;-71
2021/06/02 11:24:44;;;;;;;3.00;2.05;;;;;;;30.47;17.13;99326.53;5024968;28;20296;-70
2021/06/02 11:27:12;;;;;;;4.88;2.00;;;;;;;30.51;17.03;99327.78;5026149;28;20485;-70
2021/06/02 11:29:54;;;;;;;5.05;2.65;;;;;;;30.45;16.67;99323.22;5026336;28;20068;-71
2021/06/02 11:32:27;;;;;;;5.20;1.95;;;;;;;30.44;17.10;99316.94;5008334;28;20045;-72
2021/06/02 11:34:57;;;;;;;7.15;2.42;;;;;;;30.35;17.38;99320.97;5026069;28;20124;-72
2021/06/02 11:37:27;;;;;;;3.35;2.05;;;;;;;30.47;17.74;99321.97;5013534;28;20098;-72
2021/06/02 11:39:55;;;;;;;4.13;1.88;;;;;;;30.41;18.20;99327.41;5021565;28;20030;-69
2021/06/02 11:42:27;;;;;;;2.47;1.88;;;;;;;30.15;16.90;99320.97;5017026;28;20064;-70
2021/06/02 11:45:24;;;;;;;3.35;1.77;;;;;;;30.23;17.75;99320.75;5021952;28;20030;-69
2021/06/02 11:47:52;;;;;;;2.63;1.90;;;;;;;30.22;17.68;99326.41;5012616;28;20114;-69
2021/06/02 11:50:20;;;;;;;10.05;2.55;;;;;;;30.14;17.54;99325.59;5025905;28;20037;-69
2021/06/02 11:53:02;;;;;;;13.25;3.25;;;;;;;30.00;17.37;99318.50;5026149;28;20124;-70
2021/06/02 11:55:29;;;;;;;2.85;2.05;;;;;;;30.16;17.61;99323.50;5016306;28;20662;-71
2021/06/02 11:57:55;;;;;;;2.47;1.98;;;;;;;30.24;17.55;99321.59;5024535;28;20045;-71
2021/06/02 12:00:21;;;;;;;6.55;2.70;;;;;;;30.32;17.92;99311.34;5024232;28;20776;-72
2021/06/02 12:02:53;;;;;;;3.25;2.05;;;;;;;30.48;17.86;99317.34;5022832;28;20045;-69
2021/06/02 12:05:22;;;;;;;3.88;2.97;;;;;;;30.36;17.90;99320.72;5025398;28;20036;-69
2021/06/02 12:07:56;;;;;;;3.47;2.40;;;;;;;30.17;17.62;99321.59;5025750;28;20087;-69